createdAt,value
2019-04-01T00:01:36.679Z,46.07
2019-04-01T00:04:05.257Z,43.50
2019-04-01T00:06:33.016Z,41.60
2019-04-01T00:09:00.826Z,43.27
2019-04-01T00:11:28.603Z,43.53
2019-04-01T00:13:56.466Z,41.70
2019-04-01T00:16:24.214Z,42.30
2019-04-01T00:19:02.370Z,42.60
2019-04-01T00:21:21.543Z,42.63
2019-04-01T00:23:49.430Z,41.70
2019-04-01T00:26:17.674Z,43.57
2019-04-01T00:28:45.511Z,42.70
2019-04-01T00:31:13.412Z,42.27
2019-04-01T00:33:41.165Z,41.67
2019-04-01T00:36:09.026Z,40.20
2019-04-01T00:38:36.773Z,38.63
2019-04-01T00:41:04.520Z,40.43
2019-04-01T00:44:00.407Z,39.43
2019-04-01T00:46:28.108Z,40.77
2019-04-01T00:48:55.905Z,39.83
2019-04-01T00:51:23.710Z,39.70
2019-04-01T00:53:51.626Z,38.80
2019-04-01T00:56:19.441Z,39.47
2019-04-01T00:58:47.283Z,39.67
2019-04-01T01:01:15.049Z,38.97
2019-04-01T01:03:42.801Z,39.87
2019-04-01T01:06:10.657Z,37.97
2019-04-01T01:08:38.588Z,38.47
2019-04-01T01:11:06.459Z,38.67
2019-04-01T01:13:34.287Z,40.33
2019-04-01T01:16:01.993Z,39.17
2019-04-01T01:18:29.810Z,39.20
2019-04-01T01:20:57.597Z,37.30
2019-04-01T01:23:25.406Z,39.70
2019-04-01T01:25:53.097Z,37.77
2019-04-01T01:28:20.862Z,41.97
2019-04-01T01:30:48.665Z,45.03
2019-04-01T01:33:16.437Z,44.50
2019-04-01T01:35:44.203Z,71.50
2019-04-01T01:38:11.938Z,73.70
2019-04-01T01:40:39.724Z,67.87
2019-04-01T01:43:07.488Z,64.20
2019-04-01T01:45:35.271Z,60.90
2019-04-01T01:48:03.113Z,51.33
2019-04-01T01:50:30.897Z,48.47
2019-04-01T01:52:58.645Z,45.60
2019-04-01T01:55:26.362Z,46.37
2019-04-01T01:57:54.125Z,42.77
2019-04-01T02:00:23.321Z,42.90
2019-04-01T02:02:51.059Z,44.27
2019-04-01T02:05:18.801Z,45.60
2019-04-01T02:07:46.582Z,45.57
2019-04-01T02:10:14.450Z,44.77
2019-04-01T02:12:42.216Z,49.13
2019-04-01T02:15:10.089Z,43.00
2019-04-01T02:17:37.831Z,40.73
2019-04-01T02:20:05.557Z,38.80
2019-04-01T02:22:33.386Z,39.23
2019-04-01T02:25:01.107Z,42.17
2019-04-01T02:27:28.912Z,43.63
2019-04-01T02:29:56.792Z,43.23
2019-04-01T02:32:24.556Z,42.33
2019-04-01T02:34:52.337Z,45.03
2019-04-01T02:37:20.084Z,39.77
2019-04-01T02:39:47.995Z,43.63
2019-04-01T02:42:15.701Z,41.43
2019-04-01T02:44:43.717Z,42.47
2019-04-01T02:47:11.555Z,43.50
2019-04-01T02:49:39.319Z,40.93
2019-04-01T02:52:07.006Z,41.63
2019-04-01T02:54:34.737Z,42.33
2019-04-01T02:57:02.540Z,44.00
2019-04-01T02:59:30.218Z,43.93
2019-04-01T03:01:57.975Z,40.67
2019-04-01T03:04:25.858Z,42.27
2019-04-01T03:06:53.761Z,42.70
2019-04-01T03:09:21.500Z,42.50
2019-04-01T03:11:49.337Z,44.97
2019-04-01T03:14:17.217Z,46.47
2019-04-01T03:16:45.005Z,45.40
2019-04-01T03:19:12.968Z,42.33
2019-04-01T03:21:40.863Z,43.70
2019-04-01T03:24:08.704Z,44.43
2019-04-01T03:26:36.417Z,42.50
2019-04-01T03:29:04.152Z,43.80
2019-04-01T03:31:32.522Z,44.85
2019-04-01T03:34:00.317Z,45.33
2019-04-01T03:36:27.763Z,48.10
2019-04-01T03:38:55.306Z,43.30
2019-04-01T03:41:23.032Z,47.50
2019-04-01T03:43:50.798Z,45.13
2019-04-01T03:46:18.755Z,44.07
2019-04-01T03:48:46.495Z,47.17
2019-04-01T03:51:14.210Z,45.67
2019-04-01T03:53:41.927Z,46.37
2019-04-01T03:56:09.739Z,42.90
2019-04-01T03:58:37.906Z,42.73
2019-04-01T04:01:05.309Z,40.88
2019-04-01T04:03:32.821Z,43.68
2019-04-01T04:06:00.918Z,37.83
2019-04-01T04:08:28.670Z,30.10
2019-04-01T04:10:56.500Z,28.00
2019-04-01T04:13:24.206Z,27.03
2019-04-01T04:15:51.942Z,26.03
2019-04-01T04:18:19.982Z,24.10
2019-04-01T04:20:47.719Z,29.57
2019-04-01T04:23:15.497Z,37.70
2019-04-01T04:25:43.670Z,59.15
2019-04-01T04:28:11.541Z,36.50
2019-04-01T04:30:39.256Z,32.33
2019-04-01T04:33:06.963Z,45.17
2019-04-01T04:35:34.741Z,33.77
2019-04-01T04:38:02.481Z,28.20
2019-04-01T04:40:30.328Z,27.63
2019-04-01T04:42:58.106Z,38.93
2019-04-01T04:45:25.820Z,35.03
2019-04-01T04:47:53.535Z,31.87
2019-04-01T04:50:21.435Z,32.70
2019-04-01T04:52:49.178Z,27.33
2019-04-01T04:55:16.986Z,24.83
2019-04-01T04:57:45.223Z,25.20
2019-04-01T05:00:12.930Z,24.27
2019-04-01T05:02:40.694Z,24.77
2019-04-01T05:05:08.574Z,24.77
2019-04-01T05:07:36.425Z,27.07
2019-04-01T05:10:04.329Z,24.37
2019-04-01T05:12:32.380Z,26.77
2019-04-01T05:15:00.449Z,26.03
2019-04-01T05:17:28.510Z,23.60
2019-04-01T05:19:56.390Z,24.47
2019-04-01T05:22:24.403Z,24.65
2019-04-01T05:24:51.898Z,26.82
2019-04-01T05:27:19.338Z,23.70
2019-04-01T05:29:47.042Z,26.83
2019-04-01T05:32:14.789Z,29.37
2019-04-01T05:34:42.505Z,36.80
2019-04-01T05:37:10.297Z,30.93
2019-04-01T05:39:38.215Z,28.50
2019-04-01T05:42:06.079Z,27.43
2019-04-01T05:44:34.153Z,26.33
2019-04-01T05:47:02.033Z,27.50
2019-04-01T05:49:29.775Z,27.53
2019-04-01T05:51:57.543Z,28.03
2019-04-01T05:54:25.284Z,28.47
2019-04-01T05:56:53.164Z,27.03
2019-04-01T05:59:20.870Z,28.03
2019-04-01T06:01:48.697Z,30.80
2019-04-01T06:04:16.458Z,29.93
2019-04-01T06:06:44.326Z,30.00
2019-04-01T06:09:12.102Z,30.97
2019-04-01T06:11:39.844Z,29.23
2019-04-01T06:14:07.637Z,28.83
2019-04-01T06:16:35.515Z,26.60
2019-04-01T06:19:06.010Z,25.67
2019-04-01T06:21:32.871Z,27.80
2019-04-01T06:24:00.642Z,27.90
2019-04-01T06:26:28.440Z,29.70
2019-04-01T06:28:56.296Z,27.17
2019-04-01T06:31:24.024Z,27.57
2019-04-01T06:33:51.739Z,28.40
2019-04-01T06:36:19.451Z,28.70
2019-04-01T06:38:47.274Z,30.43
2019-04-01T06:41:15.004Z,30.33
2019-04-01T06:43:42.720Z,30.03
2019-04-01T06:46:10.548Z,28.90
2019-04-01T06:48:38.275Z,30.00
2019-04-01T06:51:06.036Z,32.53
2019-04-01T06:53:33.848Z,31.07
2019-04-01T06:56:01.701Z,31.17
2019-04-01T06:58:29.465Z,31.13
2019-04-01T07:00:57.262Z,30.93
2019-04-01T07:03:25.036Z,33.67
2019-04-01T07:05:52.754Z,30.67
2019-04-01T07:08:20.540Z,30.83
2019-04-01T07:10:48.261Z,31.73
2019-04-01T07:13:16.127Z,32.37
2019-04-01T07:15:43.853Z,32.10
2019-04-01T07:18:11.723Z,31.80
2019-04-01T07:20:39.477Z,31.87
2019-04-01T07:23:07.277Z,32.97
2019-04-01T07:25:35.014Z,31.23
2019-04-01T07:28:02.810Z,31.43
2019-04-01T07:30:30.513Z,32.80
2019-04-01T07:32:58.426Z,34.53
2019-04-01T07:35:26.244Z,31.20
2019-04-01T07:37:54.171Z,33.07
2019-04-01T07:40:22.193Z,33.50
2019-04-01T07:42:49.984Z,33.80
2019-04-01T07:45:17.747Z,33.43
2019-04-01T07:47:45.755Z,36.20
2019-04-01T07:50:13.636Z,30.93
2019-04-01T07:52:41.377Z,32.13
2019-04-01T07:55:09.115Z,31.33
2019-04-01T07:57:36.996Z,32.07
2019-04-01T08:00:04.881Z,31.90
2019-04-01T08:02:32.600Z,30.90
2019-04-01T08:05:00.448Z,30.13
2019-04-01T08:07:28.209Z,30.73
2019-04-01T08:09:56.030Z,31.23
2019-04-01T08:12:23.833Z,32.63
2019-04-01T08:14:51.653Z,30.70
2019-04-01T08:17:19.459Z,32.37
2019-04-01T08:19:47.395Z,31.17
2019-04-01T08:22:15.151Z,27.77
2019-04-01T08:24:42.944Z,26.87
2019-04-01T08:27:10.653Z,28.00
2019-04-01T08:29:38.391Z,29.07
2019-04-01T08:32:06.226Z,27.93
2019-04-01T08:34:34.029Z,26.60
2019-04-01T08:37:01.860Z,27.20
2019-04-01T08:39:29.666Z,26.10
2019-04-01T08:41:57.625Z,27.10
2019-04-01T08:44:25.478Z,25.90
2019-04-01T08:46:53.269Z,22.90
2019-04-01T08:49:21.059Z,20.30
2019-04-01T08:51:48.896Z,20.57
2019-04-01T08:54:16.864Z,20.97
2019-04-01T08:56:44.650Z,18.50
2019-04-01T08:59:12.499Z,20.17
2019-04-01T09:01:40.251Z,20.30
2019-04-01T09:04:07.979Z,19.77
2019-04-01T09:06:35.860Z,20.33
2019-04-01T09:09:05.724Z,20.70
2019-04-01T09:11:33.475Z,19.77
2019-04-01T09:14:01.290Z,19.10
2019-04-01T09:16:29.122Z,19.20
2019-04-01T09:18:56.713Z,19.23
2019-04-01T09:21:24.265Z,18.02
2019-04-01T09:23:52.374Z,17.55
2019-04-01T09:26:20.322Z,16.52
2019-04-01T09:28:47.860Z,18.10
2019-04-01T09:31:15.325Z,19.40
2019-04-01T09:33:42.908Z,18.00
2019-04-01T09:36:10.539Z,18.57
2019-04-01T09:38:38.199Z,16.27
2019-04-01T09:41:05.651Z,16.45
2019-04-01T09:43:33.139Z,16.85
2019-04-01T09:46:00.779Z,16.93
2019-04-01T09:48:28.333Z,15.68
2019-04-01T09:50:56.214Z,16.20
2019-04-01T09:53:23.985Z,15.80
2019-04-01T09:55:51.714Z,15.77
2019-04-01T09:58:19.538Z,13.50
2019-04-01T10:00:53.191Z,12.70
2019-04-01T10:03:20.478Z,11.17
2019-04-01T10:05:48.508Z,10.83
2019-04-01T10:08:16.254Z,11.30
2019-04-01T10:10:44.086Z,10.27
2019-04-01T10:13:12.089Z,9.73
2019-04-01T10:15:39.906Z,9.83
2019-04-01T10:18:07.787Z,10.43
2019-04-01T10:20:35.777Z,10.10
2019-04-01T10:23:03.618Z,11.03
2019-04-01T10:25:31.509Z,10.27
2019-04-01T10:27:59.254Z,11.33
2019-04-01T10:30:27.288Z,11.90
2019-04-01T10:32:55.197Z,11.17
2019-04-01T10:35:23.173Z,10.80
2019-04-01T10:37:51.023Z,11.67
2019-04-01T10:40:18.767Z,10.50
2019-04-01T10:42:46.526Z,10.43
2019-04-01T10:45:14.404Z,9.83
2019-04-01T10:47:42.257Z,9.77
2019-04-01T10:50:09.925Z,10.23
2019-04-01T10:52:37.735Z,8.90
2019-04-01T10:55:05.497Z,9.10
2019-04-01T10:57:33.567Z,10.07
2019-04-01T11:00:01.620Z,9.67
2019-04-01T11:02:29.637Z,9.43
2019-04-01T11:04:57.378Z,8.70
2019-04-01T11:07:25.199Z,9.20
2019-04-01T11:09:52.958Z,8.90
2019-04-01T11:12:20.768Z,9.03
2019-04-01T11:14:48.584Z,9.20
2019-04-01T11:17:16.359Z,9.27
2019-04-01T11:19:44.174Z,8.87
2019-04-01T11:22:11.917Z,9.37
2019-04-01T11:24:39.835Z,8.93
2019-04-01T11:27:07.810Z,9.13
2019-04-01T11:29:35.566Z,8.27
2019-04-01T11:32:03.420Z,8.07
2019-04-01T11:34:31.525Z,9.07
2019-04-01T11:36:59.203Z,8.70
2019-04-01T11:39:26.768Z,8.38
2019-04-01T11:41:54.341Z,8.75
2019-04-01T11:44:22.440Z,9.10
2019-04-01T11:46:50.318Z,9.65
2019-04-01T11:49:18.087Z,9.40
2019-04-01T11:51:45.651Z,10.00
2019-04-01T11:54:13.161Z,9.30
2019-04-01T11:56:41.508Z,10.93
2019-04-01T11:59:09.288Z,10.00
2019-04-01T12:01:37.033Z,10.13
2019-04-01T12:04:05.176Z,9.50
2019-04-01T12:06:32.809Z,9.23
2019-04-01T12:09:03.934Z,9.15
2019-04-01T12:11:31.672Z,9.30
2019-04-01T12:13:59.431Z,9.57
2019-04-01T12:16:26.906Z,9.28
2019-04-01T12:18:54.800Z,9.53
2019-04-01T12:21:22.582Z,10.60
2019-04-01T12:23:50.260Z,8.93
2019-04-01T12:26:18.012Z,8.90
2019-04-01T12:28:45.877Z,9.70
2019-04-01T12:31:13.416Z,8.13
2019-04-01T12:33:40.912Z,9.28
2019-04-01T12:36:11.446Z,9.58
2019-04-01T12:38:37.745Z,9.20
2019-04-01T12:41:05.360Z,9.78
2019-04-01T12:43:32.860Z,9.60
2019-04-01T12:46:00.435Z,9.80
2019-04-01T12:48:27.985Z,9.90
2019-04-01T12:50:55.648Z,9.98
2019-04-01T12:53:23.209Z,8.80
2019-04-01T12:55:50.648Z,9.08
2019-04-01T12:58:18.215Z,8.55
2019-04-01T13:00:45.679Z,9.15
2019-04-01T13:03:13.113Z,8.78
2019-04-01T13:05:40.610Z,8.95
2019-04-01T13:08:08.166Z,9.38
2019-04-01T13:10:35.784Z,9.03
2019-04-01T13:13:03.298Z,9.10
2019-04-01T13:15:30.772Z,8.70
2019-04-01T13:17:58.356Z,8.35
2019-04-01T13:20:37.126Z,9.33
2019-04-01T13:22:55.268Z,8.10
2019-04-01T13:25:22.848Z,8.03
2019-04-01T13:27:50.287Z,7.83
2019-04-01T13:30:17.886Z,8.48
2019-04-01T13:32:45.528Z,8.20
2019-04-01T13:35:13.041Z,8.23
2019-04-01T13:37:40.627Z,8.40
2019-04-01T13:40:08.109Z,8.20
2019-04-01T13:42:35.710Z,8.23
2019-04-01T13:45:03.562Z,8.75
2019-04-01T13:47:31.115Z,8.28
2019-04-01T13:49:58.660Z,9.60
2019-04-01T13:52:26.074Z,9.90
2019-04-01T13:54:53.623Z,10.50
2019-04-01T13:57:21.141Z,9.08
2019-04-01T13:59:49.893Z,9.20
2019-04-01T14:02:17.979Z,8.88
2019-04-01T14:04:45.915Z,9.10
2019-04-01T14:07:13.442Z,10.00
2019-04-01T14:09:41.009Z,9.95
2019-04-01T14:12:08.579Z,11.33
2019-04-01T14:14:36.099Z,9.20
2019-04-01T14:17:03.862Z,9.50
2019-04-01T14:19:31.448Z,9.00
2019-04-01T14:21:59.115Z,9.05
2019-04-01T14:24:26.580Z,9.05
2019-04-01T14:26:56.567Z,10.60
2019-04-01T14:29:23.226Z,10.23
2019-04-01T14:31:50.788Z,12.05
2019-04-01T14:34:23.319Z,9.93
2019-04-01T14:36:47.448Z,10.25
2019-04-01T14:39:15.063Z,9.45
2019-04-01T14:41:42.585Z,10.18
2019-04-01T14:44:10.057Z,10.40
2019-04-01T14:46:37.573Z,9.60
2019-04-01T14:49:05.287Z,10.93
2019-04-01T14:51:32.712Z,10.53
2019-04-01T14:54:00.196Z,10.13
2019-04-01T14:56:28.251Z,10.00
2019-04-01T14:58:56.434Z,10.38
2019-04-01T15:01:23.994Z,10.43
2019-04-01T15:03:51.448Z,10.28
2019-04-01T15:06:18.934Z,10.78
2019-04-01T15:08:48.111Z,9.80
2019-04-01T15:11:15.847Z,10.80
2019-04-01T15:13:43.618Z,11.07
2019-04-01T15:16:11.407Z,10.47
2019-04-01T15:18:38.901Z,11.20
2019-04-01T15:21:06.448Z,11.30
2019-04-01T15:23:33.979Z,10.98
2019-04-01T15:26:02.695Z,12.25
2019-04-01T15:28:31.470Z,11.93
2019-04-01T15:30:59.380Z,12.35
2019-04-01T15:33:26.894Z,12.78
2019-04-01T15:35:54.399Z,12.00
2019-04-01T15:38:22.272Z,12.88
2019-04-01T15:40:50.445Z,12.33
2019-04-01T15:43:18.190Z,12.70
2019-04-01T15:45:46.082Z,12.13
2019-04-01T15:48:13.907Z,12.77
2019-04-01T15:50:41.898Z,14.30
2019-04-01T15:53:09.851Z,12.73
2019-04-01T15:55:37.586Z,12.50
2019-04-01T15:58:05.457Z,12.73
2019-04-01T16:00:33.360Z,12.93
2019-04-01T16:03:01.320Z,13.60
2019-04-01T16:05:30.586Z,13.33
2019-04-01T16:07:58.721Z,13.83
2019-04-01T16:10:29.345Z,12.77
2019-04-01T16:12:55.964Z,13.13
2019-04-01T16:15:23.833Z,13.30
2019-04-01T16:17:53.881Z,12.63
2019-04-01T16:20:21.115Z,13.47
2019-04-01T16:22:49.302Z,12.33
2019-04-01T16:25:17.894Z,12.60
2019-04-01T16:27:45.754Z,12.93
2019-04-01T16:30:13.625Z,12.87
2019-04-01T16:32:41.248Z,13.00
2019-04-01T16:35:09.115Z,12.10
2019-04-01T16:37:36.921Z,13.93
2019-04-01T16:40:06.012Z,13.87
2019-04-01T16:42:34.237Z,13.73
2019-04-01T16:45:01.986Z,13.83
2019-04-01T16:47:29.794Z,13.80
2019-04-01T16:49:58.608Z,14.00
2019-04-01T16:52:26.386Z,18.70
2019-04-01T16:54:54.127Z,15.77
2019-04-01T16:57:21.982Z,14.27
2019-04-01T16:59:49.894Z,14.23
2019-04-01T17:02:18.617Z,14.30
2019-04-01T17:04:48.273Z,14.97
2019-04-01T17:07:19.424Z,15.37
2019-04-01T17:09:45.762Z,15.47
2019-04-01T17:12:13.478Z,16.33
2019-04-01T17:14:41.295Z,17.00
2019-04-01T17:17:09.050Z,16.50
2019-04-01T17:19:36.833Z,18.33
2019-04-01T17:22:04.589Z,18.80
2019-04-01T17:24:32.364Z,23.27
2019-04-01T17:27:00.240Z,20.73
2019-04-01T17:29:31.582Z,21.13
2019-04-01T17:31:57.797Z,18.87
2019-04-01T17:34:25.546Z,27.57
2019-04-01T17:36:53.250Z,38.43
2019-04-01T17:39:21.231Z,46.63
2019-04-01T17:41:49.011Z,39.07
2019-04-01T17:44:16.853Z,63.10
2019-04-01T17:46:44.847Z,34.27
2019-04-01T17:49:12.695Z,33.03
2019-04-01T17:51:40.532Z,31.93
2019-04-01T17:54:08.239Z,32.90
2019-04-01T17:56:35.993Z,27.87
2019-04-01T17:59:03.813Z,27.63
2019-04-01T18:01:31.626Z,24.80
2019-04-01T18:03:59.480Z,27.90
2019-04-01T18:06:27.368Z,27.70
2019-04-01T18:08:55.171Z,27.93
2019-04-01T18:11:22.934Z,28.80
2019-04-01T18:13:51.265Z,26.83
2019-04-01T18:16:18.922Z,34.33
2019-04-01T18:18:46.823Z,27.27
2019-04-01T18:21:14.783Z,28.87
2019-04-01T18:23:42.580Z,27.27
2019-04-01T18:26:10.319Z,21.73
2019-04-01T18:28:38.183Z,21.27
2019-04-01T18:31:05.939Z,16.57
2019-04-01T18:33:33.921Z,18.07
2019-04-01T18:36:01.620Z,15.70
2019-04-01T18:38:29.451Z,14.47
2019-04-01T18:40:57.187Z,15.17
2019-04-01T18:43:25.091Z,15.10
2019-04-01T18:45:53.283Z,20.77
2019-04-01T18:48:21.340Z,17.00
2019-04-01T18:50:49.318Z,16.27
2019-04-01T18:53:17.217Z,16.20
2019-04-01T18:55:45.156Z,15.43
2019-04-01T18:58:13.017Z,16.13
2019-04-01T19:00:40.885Z,15.80
2019-04-01T19:03:10.433Z,14.60
2019-04-01T19:05:39.002Z,14.43
2019-04-01T19:08:07.134Z,15.00
2019-04-01T19:10:35.217Z,14.30
2019-04-01T19:13:06.051Z,14.57
2019-04-01T19:15:33.319Z,15.57
2019-04-01T19:18:01.887Z,15.43
2019-04-01T19:20:30.613Z,16.73
2019-04-01T19:22:58.683Z,16.13
2019-04-01T19:25:26.569Z,17.97
2019-04-01T19:27:54.372Z,17.40
2019-04-01T19:30:22.076Z,17.33
2019-04-01T19:32:49.924Z,16.47
2019-04-01T19:35:17.668Z,16.40
2019-04-01T19:37:45.529Z,15.63
2019-04-01T19:40:13.271Z,16.67
2019-04-01T19:42:41.121Z,15.23
2019-04-01T19:45:11.959Z,14.63
2019-04-01T19:47:39.817Z,14.20
2019-04-01T19:50:07.681Z,15.53
2019-04-01T19:52:35.463Z,15.43
2019-04-01T19:55:03.776Z,15.83
2019-04-01T19:57:31.684Z,16.10
2019-04-01T20:00:01.622Z,16.43
2019-04-01T20:02:29.369Z,18.17
2019-04-01T20:04:57.124Z,17.57
2019-04-01T20:07:25.057Z,16.33
2019-04-01T20:09:52.837Z,16.03
2019-04-01T20:12:20.556Z,16.67
2019-04-01T20:14:48.295Z,17.73
2019-04-01T20:17:16.001Z,16.43
2019-04-01T20:19:44.053Z,16.33
2019-04-01T20:22:11.963Z,16.30
2019-04-01T20:24:39.893Z,15.63
2019-04-01T20:27:07.764Z,16.00
2019-04-01T20:29:35.471Z,15.10
2019-04-01T20:32:16.225Z,14.23
2019-04-01T20:34:32.774Z,14.17
2019-04-01T20:37:00.598Z,13.93
2019-04-01T20:39:28.319Z,14.43
2019-04-01T20:41:56.229Z,13.50
2019-04-01T20:44:25.070Z,13.73
2019-04-01T20:46:52.893Z,14.50
2019-04-01T20:49:20.701Z,13.87
2019-04-01T20:51:48.618Z,12.67
2019-04-01T20:54:16.618Z,13.47
2019-04-01T20:56:44.528Z,13.13
2019-04-01T20:59:12.249Z,11.77
2019-04-01T21:01:39.978Z,12.30
2019-04-01T21:04:07.944Z,12.03
2019-04-01T21:06:35.714Z,12.00
2019-04-01T21:09:06.060Z,11.47
2019-04-01T21:11:33.783Z,11.87
2019-04-01T21:14:03.109Z,11.70
2019-04-01T21:16:31.231Z,12.20
2019-04-01T21:18:58.981Z,11.93
2019-04-01T21:21:26.803Z,12.57
2019-04-01T21:23:54.612Z,12.03
2019-04-01T21:26:22.364Z,12.07
2019-04-01T21:28:50.222Z,11.20
2019-04-01T21:31:17.958Z,12.07
2019-04-01T21:33:45.749Z,12.47
2019-04-01T21:36:16.025Z,12.70
2019-04-01T21:38:43.628Z,12.40
2019-04-01T21:41:11.578Z,12.67
2019-04-01T21:43:39.316Z,12.30
2019-04-01T21:46:08.677Z,11.53
2019-04-01T21:48:37.004Z,11.43
2019-04-01T21:51:05.185Z,11.67
2019-04-01T21:53:33.099Z,11.60
2019-04-01T21:56:00.968Z,10.53
2019-04-01T21:58:28.940Z,11.60
2019-04-01T22:00:58.211Z,11.53
2019-04-01T22:03:26.114Z,11.17
2019-04-01T22:05:53.877Z,10.97
2019-04-01T22:08:21.749Z,11.20
2019-04-01T22:10:49.620Z,14.80
2019-04-01T22:13:17.471Z,28.20
2019-04-01T22:15:45.249Z,22.10
2019-04-01T22:18:13.299Z,19.93
2019-04-01T22:20:42.688Z,19.80
2019-04-01T22:23:10.768Z,21.83
2019-04-01T22:25:38.681Z,23.00
2019-04-01T22:28:06.526Z,20.80
2019-04-01T22:30:34.234Z,21.37
2019-04-01T22:33:02.115Z,19.73
2019-04-01T22:35:38.461Z,19.20
2019-04-01T22:37:59.652Z,18.10
2019-04-01T22:40:27.561Z,18.27
2019-04-01T22:42:56.193Z,23.17
2019-04-01T22:45:24.285Z,24.33
2019-04-01T22:47:52.110Z,21.60
2019-04-01T22:50:19.931Z,20.30
2019-04-01T22:52:47.804Z,20.10
2019-04-01T22:55:15.672Z,18.20
2019-04-01T22:57:43.625Z,18.20
2019-04-01T23:00:11.537Z,17.43
2019-04-01T23:02:39.353Z,17.50
2019-04-01T23:05:08.391Z,19.13
2019-04-01T23:07:36.724Z,20.13
2019-04-01T23:10:04.618Z,19.60
2019-04-01T23:12:32.320Z,19.07
2019-04-01T23:15:00.152Z,16.63
2019-04-01T23:17:28.012Z,17.27
2019-04-01T23:19:55.897Z,16.17
2019-04-01T23:22:23.659Z,17.13
2019-04-01T23:24:51.361Z,17.13
2019-04-01T23:27:19.199Z,17.63
2019-04-01T23:29:46.948Z,17.20
2019-04-01T23:32:16.124Z,17.77
2019-04-01T23:34:44.281Z,17.40
2019-04-01T23:37:12.114Z,18.90
2019-04-01T23:39:39.884Z,18.57
2019-04-01T23:42:07.725Z,18.97
2019-04-01T23:44:35.502Z,19.30
2019-04-01T23:47:03.377Z,20.30
2019-04-01T23:49:31.188Z,20.40
2019-04-01T23:51:58.946Z,21.50
2019-04-01T23:54:26.736Z,21.97
2019-04-01T23:56:56.016Z,25.37
2019-04-01T23:59:24.112Z,24.33
